Time;durP1;ratioP1;P1;durP2;ratioP2;P2;SDS_P1;SDS_P2;PMS_P1;PMS_P2;Temp;Humidity;BMP_temperature;BMP_pressure;BME280_temperature;BME280_humidity;BME280_pressure;Samples;Min_cycle;Max_cycle;Signal;HPM_P1;HPM_P2
2022/07/25 00:01:51;;;;;;;10.02;9.02;;;;;;;;;;5092176;28;20224;-66
2022/07/25 00:04:19;;;;;;;9.68;8.82;;;;;;;;;;5067160;28;20800;-65
2022/07/25 00:06:46;;;;;;;9.00;8.10;;;;;;;;;;5090376;28;20216;-65
2022/07/25 00:09:13;;;;;;;9.13;8.43;;;;;;;;;;5089127;28;20242;-65
2022/07/25 00:11:41;;;;;;;9.43;8.68;;;;;;;;;;5086873;28;20257;-65
2022/07/25 00:14:09;;;;;;;9.15;8.35;;;;;;;;;;5086729;27;20219;-65
2022/07/25 00:16:36;;;;;;;9.45;8.55;;;;;;;;;;5096819;28;20236;-65
2022/07/25 00:19:04;;;;;;;10.00;9.10;;;;;;;;;;5092114;27;20286;-65
2022/07/25 00:21:32;;;;;;;9.50;8.70;;;;;;;;;;5103490;28;20646;-65
2022/07/25 00:23:59;;;;;;;10.05;9.05;;;;;;;;;;5086420;28;20674;-65
2022/07/25 00:26:26;;;;;;;9.75;8.90;;;;;;;;;;5084797;27;20748;-65
2022/07/25 00:28:54;;;;;;;10.25;9.35;;;;;;;;;;5082688;28;20282;-66
2022/07/25 00:31:21;;;;;;;9.98;9.18;;;;;;;;;;5107414;27;20196;-66
2022/07/25 00:33:49;;;;;;;9.95;9.05;;;;;;;;;;5108717;27;20200;-65
2022/07/25 00:36:16;;;;;;;10.35;9.30;;;;;;;;;;5085011;27;20227;-65
2022/07/25 00:38:44;;;;;;;10.10;9.20;;;;;;;;;;5090515;27;20208;-65
2022/07/25 00:41:11;;;;;;;10.40;9.50;;;;;;;;;;5101259;27;20235;-65
2022/07/25 00:43:42;;;;;;;10.10;9.20;;;;;;;;;;5090529;28;20219;-65
2022/07/25 00:46:13;;;;;;;9.80;8.93;;;;;;;;;;5086905;27;20317;-65
2022/07/25 00:48:45;;;;;;;10.20;9.18;;;;;;;;;;5090899;27;20700;-65
2022/07/25 00:51:13;;;;;;;10.00;9.20;;;;;;;;;;5091061;27;20859;-65
2022/07/25 00:53:41;;;;;;;10.80;9.70;;;;;;;;;;5091915;27;20200;-65
2022/07/25 00:56:09;;;;;;;10.25;9.32;;;;;;;;;;5080545;28;20228;-65
2022/07/25 00:58:36;;;;;;;10.85;8.98;;;;;;;;;;5104794;27;20199;-65
2022/07/25 01:01:04;;;;;;;10.30;9.40;;;;;;;;;;5085512;28;20319;-65
2022/07/25 01:03:31;;;;;;;10.88;9.52;;;;;;;;;;5085198;28;20219;-65
2022/07/25 01:05:59;;;;;;;9.88;8.90;;;;;;;;;;5078365;28;20204;-65
2022/07/25 01:08:26;;;;;;;9.40;8.48;;;;;;;;;;5090405;28;20650;-65
2022/07/25 01:10:53;;;;;;;11.77;8.75;;;;;;;;;;5085339;28;20208;-65
2022/07/25 01:13:21;;;;;;;12.38;8.93;;;;;;;;;;5102717;27;20223;-65
2022/07/25 01:15:49;;;;;;;9.60;8.75;;;;;;;;;;5105755;27;20215;-65
2022/07/25 01:18:16;;;;;;;9.57;8.77;;;;;;;;;;5098669;27;20216;-65
2022/07/25 01:20:44;;;;;;;9.27;8.38;;;;;;;;;;5079162;28;20201;-65
2022/07/25 01:23:11;;;;;;;9.65;8.75;;;;;;;;;;5087786;27;20231;-65
2022/07/25 01:25:39;;;;;;;9.75;8.75;;;;;;;;;;5078360;28;20663;-65
2022/07/25 01:28:06;;;;;;;9.30;8.38;;;;;;;;;;5084318;27;20220;-65
2022/07/25 01:30:33;;;;;;;9.43;8.52;;;;;;;;;;5101401;27;20211;-65
2022/07/25 01:33:01;;;;;;;9.63;8.68;;;;;;;;;;5088321;28;20215;-65
2022/07/25 01:35:33;;;;;;;9.57;8.77;;;;;;;;;;5084275;27;20211;-65
2022/07/25 01:38:04;;;;;;;9.05;8.18;;;;;;;;;;5086169;27;20224;-65
2022/07/25 01:40:31;;;;;;;9.93;9.10;;;;;;;;;;5085950;28;20232;-65
2022/07/25 01:42:58;;;;;;;9.43;8.63;;;;;;;;;;5083569;28;20224;-65
2022/07/25 01:45:26;;;;;;;10.63;9.68;;;;;;;;;;5085184;27;20208;-65
2022/07/25 01:47:53;;;;;;;10.05;9.05;;;;;;;;;;5082726;28;20220;-65
2022/07/25 01:50:21;;;;;;;11.43;8.68;;;;;;;;;;5075680;28;20731;-65
2022/07/25 01:52:49;;;;;;;9.70;8.73;;;;;;;;;;5083624;28;20212;-65
2022/07/25 01:55:17;;;;;;;10.07;9.07;;;;;;;;;;5086640;28;20289;-65
2022/07/25 01:57:45;;;;;;;9.73;8.93;;;;;;;;;;5081360;27;20236;-65
2022/07/25 02:00:16;;;;;;;9.95;9.02;;;;;;;;;;5087158;27;20207;-65
2022/07/25 02:02:44;;;;;;;10.43;9.23;;;;;;;;;;5078424;28;20253;-65
2022/07/25 02:05:13;;;;;;;9.88;8.88;;;;;;;;;;5081962;27;20204;-65
2022/07/25 02:07:41;;;;;;;9.90;9.10;;;;;;;;;;5093759;27;20220;-65
2022/07/25 02:10:09;;;;;;;9.85;8.90;;;;;;;;;;5085036;27;20203;-65
2022/07/25 02:12:36;;;;;;;9.98;9.05;;;;;;;;;;5076463;28;20216;-65
2022/07/25 02:15:03;;;;;;;10.40;9.40;;;;;;;;;;5090735;27;20207;-65
2022/07/25 02:17:31;;;;;;;12.13;9.45;;;;;;;;;;5091471;28;20223;-65
2022/07/25 02:19:59;;;;;;;10.30;9.25;;;;;;;;;;5074775;28;20653;-65
2022/07/25 02:22:26;;;;;;;10.27;9.13;;;;;;;;;;5080204;28;20282;-65
2022/07/25 02:24:53;;;;;;;12.00;9.57;;;;;;;;;;5084007;28;20572;-66
2022/07/25 02:27:21;;;;;;;10.32;9.40;;;;;;;;;;5085128;28;20220;-66
2022/07/25 02:29:49;;;;;;;9.38;8.43;;;;;;;;;;5103878;28;20192;-66
2022/07/25 02:32:16;;;;;;;10.52;9.50;;;;;;;;;;5093650;28;20204;-64
2022/07/25 02:34:44;;;;;;;9.45;8.65;;;;;;;;;;5091248;28;20208;-65
2022/07/25 02:37:12;;;;;;;10.00;9.18;;;;;;;;;;5085694;28;20226;-65
2022/07/25 02:39:39;;;;;;;10.02;9.05;;;;;;;;;;5078589;28;20205;-66
2022/07/25 02:42:06;;;;;;;9.32;8.40;;;;;;;;;;5088602;28;20251;-65
2022/07/25 02:44:34;;;;;;;10.48;8.75;;;;;;;;;;5087355;28;20204;-65
2022/07/25 02:47:02;;;;;;;10.88;9.20;;;;;;;;;;5087625;28;20235;-65
2022/07/25 02:49:29;;;;;;;9.95;9.05;;;;;;;;;;5091261;28;20204;-64
2022/07/25 02:51:56;;;;;;;10.30;9.30;;;;;;;;;;5086584;28;20204;-65
2022/07/25 02:54:24;;;;;;;9.73;8.73;;;;;;;;;;5107853;27;20835;-64
2022/07/25 02:56:51;;;;;;;9.90;9.00;;;;;;;;;;5084814;28;20227;-67
2022/07/25 02:59:19;;;;;;;9.65;8.70;;;;;;;;;;5107056;28;20636;-65
2022/07/25 03:01:46;;;;;;;11.43;9.07;;;;;;;;;;5079552;28;20645;-64
2022/07/25 03:04:13;;;;;;;10.18;9.13;;;;;;;;;;5083722;28;20229;-65
2022/07/25 03:06:43;;;;;;;10.00;8.85;;;;;;;;;;5089497;28;20265;-67
2022/07/25 03:09:10;;;;;;;10.45;9.48;;;;;;;;;;5078415;28;20207;-66
2022/07/25 03:11:38;;;;;;;10.88;9.82;;;;;;;;;;5082668;28;20211;-65
2022/07/25 03:14:07;;;;;;;10.15;8.77;;;;;;;;;;5083222;28;20200;-67
2022/07/25 03:16:35;;;;;;;9.10;8.23;;;;;;;;;;5097522;28;20238;-66
2022/07/25 03:19:03;;;;;;;10.23;9.20;;;;;;;;;;5084353;28;20208;-66
2022/07/25 03:21:30;;;;;;;9.32;8.43;;;;;;;;;;5079229;28;20208;-64
2022/07/25 03:23:57;;;;;;;9.65;8.75;;;;;;;;;;5075693;28;20302;-65
2022/07/25 03:26:25;;;;;;;9.98;9.05;;;;;;;;;;5084999;28;20212;-67
2022/07/25 03:28:52;;;;;;;10.43;9.38;;;;;;;;;;5080527;28;20197;-65
2022/07/25 03:31:20;;;;;;;10.88;9.88;;;;;;;;;;5096272;28;20211;-66
2022/07/25 03:33:47;;;;;;;13.07;9.80;;;;;;;;;;5085187;28;20212;-65
2022/07/25 03:36:14;;;;;;;10.32;9.32;;;;;;;;;;5097694;27;20236;-66
2022/07/25 03:38:42;;;;;;;10.77;9.27;;;;;;;;;;5098854;27;20575;-65
2022/07/25 03:41:10;;;;;;;10.43;9.35;;;;;;;;;;5085154;28;20211;-65
2022/07/25 03:43:37;;;;;;;12.07;9.60;;;;;;;;;;5084585;27;20714;-66
2022/07/25 03:46:04;;;;;;;10.95;9.95;;;;;;;;;;5087428;27;20211;-65
2022/07/25 03:48:32;;;;;;;13.75;10.57;;;;;;;;;;5085796;28;20272;-67
2022/07/25 03:51:00;;;;;;;16.27;13.27;;;;;;;;;;5087783;28;20206;-65
2022/07/25 03:54:00;;;;;;;14.80;13.30;;;;;;;;;;5084863;27;20671;-66
2022/07/25 03:56:20;;;;;;;15.15;13.55;;;;;;;;;;5098493;28;20224;-66
2022/07/25 03:58:47;;;;;;;13.38;11.98;;;;;;;;;;5098636;28;20211;-66
2022/07/25 04:01:15;;;;;;;12.93;11.63;;;;;;;;;;5094230;28;20675;-66
2022/07/25 04:03:42;;;;;;;12.40;11.07;;;;;;;;;;5092383;27;20313;-65
2022/07/25 04:06:10;;;;;;;13.32;11.80;;;;;;;;;;5090903;28;20228;-65
2022/07/25 04:08:37;;;;;;;13.65;11.32;;;;;;;;;;5087126;28;20572;-65
2022/07/25 04:11:05;;;;;;;12.40;10.10;;;;;;;;;;5086049;27;20196;-66
2022/07/25 04:13:32;;;;;;;12.60;9.35;;;;;;;;;;5085989;28;20204;-65
2022/07/25 04:16:00;;;;;;;10.15;9.20;;;;;;;;;;5084363;28;20685;-66
2022/07/25 04:18:30;;;;;;;10.45;9.45;;;;;;;;;;5080282;27;20208;-64
2022/07/25 04:21:00;;;;;;;11.38;9.50;;;;;;;;;;5103061;27;22998;-66
2022/07/25 04:23:27;;;;;;;11.02;9.93;;;;;;;;;;5078113;28;20232;-66
2022/07/25 04:25:55;;;;;;;10.85;9.40;;;;;;;;;;5100753;27;20287;-67
2022/07/25 04:28:23;;;;;;;10.43;9.25;;;;;;;;;;5084090;27;20200;-67
2022/07/25 04:30:50;;;;;;;9.85;8.85;;;;;;;;;;5083128;27;20195;-65
2022/07/25 04:33:18;;;;;;;10.20;9.20;;;;;;;;;;5089545;28;20212;-66
2022/07/25 04:35:45;;;;;;;10.80;9.80;;;;;;;;;;5089189;28;20267;-67
2022/07/25 04:38:13;;;;;;;10.77;9.43;;;;;;;;;;5097548;27;20199;-67
2022/07/25 04:40:40;;;;;;;9.98;8.55;;;;;;;;;;5085169;28;20792;-64
2022/07/25 04:43:08;;;;;;;10.23;9.23;;;;;;;;;;5104455;27;20232;-66
2022/07/25 04:45:35;;;;;;;11.75;9.23;;;;;;;;;;5074524;27;20682;-65
2022/07/25 04:48:03;;;;;;;10.95;9.82;;;;;;;;;;5080943;28;20732;-65
2022/07/25 04:50:30;;;;;;;11.57;9.90;;;;;;;;;;5084270;28;20345;-67
2022/07/25 04:52:58;;;;;;;10.45;9.50;;;;;;;;;;5087469;27;20205;-66
2022/07/25 04:55:26;;;;;;;11.73;10.35;;;;;;;;;;5108335;27;20675;-66
2022/07/25 04:57:53;;;;;;;11.15;9.95;;;;;;;;;;5101763;27;20820;-67
2022/07/25 05:00:22;;;;;;;9.77;8.98;;;;;;;;;;5085709;27;20218;-67
2022/07/25 05:02:50;;;;;;;12.20;10.25;;;;;;;;;;5084843;27;20721;-66
2022/07/25 05:05:19;;;;;;;10.10;9.10;;;;;;;;;;5090721;28;20203;-65
2022/07/25 05:07:48;;;;;;;10.27;9.30;;;;;;;;;;5088356;27;20250;-64
2022/07/25 05:10:16;;;;;;;10.85;8.63;;;;;;;;;;5092373;27;20204;-65
2022/07/25 05:12:43;;;;;;;11.02;9.35;;;;;;;;;;5086071;27;20576;-66
2022/07/25 05:15:11;;;;;;;11.35;9.98;;;;;;;;;;5098522;28;20671;-66
2022/07/25 05:17:38;;;;;;;10.32;9.15;;;;;;;;;;5088430;28;20236;-65
2022/07/25 05:20:06;;;;;;;10.95;9.85;;;;;;;;;;5089466;27;20204;-66
2022/07/25 05:22:33;;;;;;;10.40;9.40;;;;;;;;;;5083617;28;20227;-67
2022/07/25 05:25:01;;;;;;;11.68;10.25;;;;;;;;;;5085977;28;20201;-66
2022/07/25 05:27:28;;;;;;;11.40;9.65;;;;;;;;;;5094186;27;20224;-67
2022/07/25 05:29:56;;;;;;;11.82;9.75;;;;;;;;;;5091269;28;20254;-66
2022/07/25 05:32:23;;;;;;;9.82;8.93;;;;;;;;;;5090532;28;20598;-66
2022/07/25 05:34:52;;;;;;;10.55;9.65;;;;;;;;;;5092816;27;20207;-67
2022/07/25 05:37:19;;;;;;;9.35;8.15;;;;;;;;;;5087937;28;20213;-66
2022/07/25 05:39:47;;;;;;;9.00;7.95;;;;;;;;;;5088484;28;20230;-67
2022/07/25 05:42:14;;;;;;;8.20;7.40;;;;;;;;;;5088623;28;20200;-67
2022/07/25 05:44:41;;;;;;;8.07;7.32;;;;;;;;;;5094479;28;20239;-67
2022/07/25 05:47:09;;;;;;;8.70;7.88;;;;;;;;;;5094986;28;20220;-67
2022/07/25 05:49:37;;;;;;;7.25;6.65;;;;;;;;;;5090489;27;20254;-67
2022/07/25 05:52:05;;;;;;;7.85;7.15;;;;;;;;;;5087982;28;20196;-67
2022/07/25 05:54:40;;;;;;;7.38;6.78;;;;;;;;;;5110430;27;20242;-68
2022/07/25 05:57:07;;;;;;;7.45;6.75;;;;;;;;;;5091371;28;20735;-68
2022/07/25 05:59:34;;;;;;;7.55;6.95;;;;;;;;;;5101268;27;20200;-67
2022/07/25 06:02:02;;;;;;;7.25;6.65;;;;;;;;;;5088061;28;20199;-65
2022/07/25 06:04:29;;;;;;;7.10;6.57;;;;;;;;;;5084756;28;20227;-67
2022/07/25 06:06:57;;;;;;;8.25;7.07;;;;;;;;;;5083174;28;20307;-67
2022/07/25 06:09:24;;;;;;;7.38;6.82;;;;;;;;;;5089021;28;20200;-68
2022/07/25 06:11:52;;;;;;;6.85;6.30;;;;;;;;;;5090581;28;20199;-68
2022/07/25 06:14:27;;;;;;;7.30;6.70;;;;;;;;;;5093270;27;20761;-67
2022/07/25 06:16:55;;;;;;;7.65;7.05;;;;;;;;;;5089822;28;20852;-66
2022/07/25 06:19:22;;;;;;;10.00;7.85;;;;;;;;;;5089890;28;20203;-71
2022/07/25 06:21:49;;;;;;;8.40;7.70;;;;;;;;;;5087728;28;20200;-66
2022/07/25 06:24:17;;;;;;;9.15;8.30;;;;;;;;;;5087718;28;20316;-66
2022/07/25 06:26:44;;;;;;;8.85;8.02;;;;;;;;;;5083651;28;20217;-68
2022/07/25 06:29:12;;;;;;;9.50;8.60;;;;;;;;;;5085043;27;20205;-67
2022/07/25 06:31:39;;;;;;;9.75;8.82;;;;;;;;;;5088543;28;20208;-67
2022/07/25 06:34:07;;;;;;;9.98;8.95;;;;;;;;;;5090027;28;20400;-66
2022/07/25 06:36:35;;;;;;;10.43;9.48;;;;;;;;;;5093030;27;20224;-67
2022/07/25 06:39:02;;;;;;;10.25;9.32;;;;;;;;;;5093312;28;20207;-66
2022/07/25 06:41:30;;;;;;;11.65;10.55;;;;;;;;;;5082526;28;20215;-67
2022/07/25 06:43:57;;;;;;;11.50;10.40;;;;;;;;;;5084961;28;20220;-67
2022/07/25 06:46:28;;;;;;;12.82;10.30;;;;;;;;;;5085688;28;20223;-67
2022/07/25 06:48:56;;;;;;;11.98;10.77;;;;;;;;;;5087482;27;20658;-66
2022/07/25 06:51:24;;;;;;;11.60;10.50;;;;;;;;;;5087270;27;20200;-67
2022/07/25 06:53:52;;;;;;;11.95;10.85;;;;;;;;;;5080500;27;20212;-65
2022/07/25 06:56:20;;;;;;;12.15;11.07;;;;;;;;;;5086797;28;20220;-67
2022/07/25 06:58:47;;;;;;;12.20;11.10;;;;;;;;;;5088030;28;20200;-67
2022/07/25 07:01:15;;;;;;;12.23;10.85;;;;;;;;;;5082852;28;22120;-65
2022/07/25 07:03:42;;;;;;;11.77;10.77;;;;;;;;;;5085346;28;20227;-67
2022/07/25 07:06:10;;;;;;;11.88;10.80;;;;;;;;;;5080913;28;20220;-66
2022/07/25 07:08:37;;;;;;;12.02;10.77;;;;;;;;;;5080813;28;20231;-68
2022/07/25 07:11:05;;;;;;;11.82;10.73;;;;;;;;;;5084820;28;20200;-66
2022/07/25 07:13:33;;;;;;;11.18;10.18;;;;;;;;;;5074857;28;20713;-67
2022/07/25 07:16:00;;;;;;;11.45;10.38;;;;;;;;;;5081930;27;20204;-67
2022/07/25 07:18:28;;;;;;;11.18;10.18;;;;;;;;;;5088947;28;20212;-67
2022/07/25 07:20:55;;;;;;;11.50;10.43;;;;;;;;;;5091453;28;20241;-67
2022/07/25 07:23:22;;;;;;;10.45;9.55;;;;;;;;;;5085243;28;20231;-67
2022/07/25 07:25:50;;;;;;;10.70;9.65;;;;;;;;;;5090573;28;20196;-67
2022/07/25 07:28:18;;;;;;;11.05;10.00;;;;;;;;;;5092559;28;20790;-67
2022/07/25 07:30:45;;;;;;;11.05;9.95;;;;;;;;;;5097172;28;20235;-66
2022/07/25 07:33:34;;;;;;;10.80;9.88;;;;;;;;;;5104648;28;20200;-67
2022/07/25 07:36:01;;;;;;;10.57;9.68;;;;;;;;;;5095380;28;20211;-67
2022/07/25 07:38:29;;;;;;;12.40;10.15;;;;;;;;;;5090572;28;20204;-67
2022/07/25 07:40:56;;;;;;;11.07;9.98;;;;;;;;;;5086405;28;20633;-67
2022/07/25 07:43:23;;;;;;;11.13;10.02;;;;;;;;;;5086829;28;20239;-67
2022/07/25 07:45:59;;;;;;;11.32;10.23;;;;;;;;;;5091100;28;20207;-67
2022/07/25 07:48:28;;;;;;;11.07;10.18;;;;;;;;;;5084396;28;20210;-67
2022/07/25 07:50:55;;;;;;;11.13;10.13;;;;;;;;;;5119483;28;20656;-67
2022/07/25 07:55:42;;;;;;;10.32;9.35;;;;;;;;;;5086208;28;20691;-66
2022/07/25 07:56:10;;;;;;;11.18;10.18;;;;;;;;;;5109014;28;20652;-67
2022/07/25 07:58:38;;;;;;;10.88;9.88;;;;;;;;;;5109037;28;20289;-67
2022/07/25 08:01:06;;;;;;;10.25;9.27;;;;;;;;;;5091385;28;20211;-67
2022/07/25 08:03:34;;;;;;;10.20;9.30;;;;;;;;;;5107050;28;20251;-66
2022/07/25 08:06:02;;;;;;;10.40;9.50;;;;;;;;;;5091925;28;20316;-68
2022/07/25 08:08:29;;;;;;;10.50;9.60;;;;;;;;;;5110796;28;20441;-68
2022/07/25 08:10:58;;;;;;;10.35;9.45;;;;;;;;;;5099803;28;20204;-65
2022/07/25 08:13:30;;;;;;;10.20;9.20;;;;;;;;;;5112628;28;20601;-65
2022/07/25 08:16:00;;;;;;;10.15;9.15;;;;;;;;;;5088562;28;20208;-66
2022/07/25 08:18:28;;;;;;;10.52;9.48;;;;;;;;;;5082613;28;20274;-66
2022/07/25 08:20:56;;;;;;;10.38;9.38;;;;;;;;;;5091401;28;20798;-67
2022/07/25 08:23:26;;;;;;;11.18;8.82;;;;;;;;;;5088490;27;20575;-67
2022/07/25 08:25:54;;;;;;;10.45;9.57;;;;;;;;;;5094940;27;20204;-67
2022/07/25 08:28:21;;;;;;;10.98;9.48;;;;;;;;;;5115211;27;20655;-67
2022/07/25 08:30:49;;;;;;;10.50;9.38;;;;;;;;;;5092596;27;20225;-64
2022/07/25 08:33:16;;;;;;;10.02;9.23;;;;;;;;;;5113924;27;20200;-67
2022/07/25 08:35:48;;;;;;;10.63;9.68;;;;;;;;;;5070620;27;20553;-66
2022/07/25 08:38:15;;;;;;;10.57;9.65;;;;;;;;;;5084393;27;20615;-67
2022/07/25 08:40:43;;;;;;;10.48;9.50;;;;;;;;;;5078568;27;20226;-67
2022/07/25 08:43:12;;;;;;;9.88;8.98;;;;;;;;;;5093162;27;20716;-68
2022/07/25 08:45:52;;;;;;;10.25;9.32;;;;;;;;;;5086407;28;20341;-65
2022/07/25 08:48:22;;;;;;;9.38;8.50;;;;;;;;;;5086710;27;20204;-67
2022/07/25 08:50:55;;;;;;;9.15;8.40;;;;;;;;;;5101657;27;20220;-66
2022/07/25 08:53:24;;;;;;;9.07;8.27;;;;;;;;;;5093730;27;20207;-66
2022/07/25 08:56:01;;;;;;;9.27;8.48;;;;;;;;;;5117558;27;20576;-68
2022/07/25 08:58:35;;;;;;;8.80;7.90;;;;;;;;;;5081229;28;20257;-67
2022/07/25 09:01:03;;;;;;;9.18;8.30;;;;;;;;;;5079899;28;20193;-66
2022/07/25 09:03:30;;;;;;;9.20;8.32;;;;;;;;;;5094903;28;20204;-67
2022/07/25 09:05:59;;;;;;;8.30;7.50;;;;;;;;;;5094245;28;20253;-68
2022/07/25 09:08:26;;;;;;;7.63;6.88;;;;;;;;;;5103075;27;20203;-67
2022/07/25 09:10:54;;;;;;;7.93;7.07;;;;;;;;;;5107166;27;20737;-68
2022/07/25 09:13:22;;;;;;;7.85;6.97;;;;;;;;;;5106831;28;20216;-67
2022/07/25 09:15:55;;;;;;;7.68;7.00;;;;;;;;;;5086738;28;20229;-67
2022/07/25 09:18:24;;;;;;;8.90;8.20;;;;;;;;;;5094336;28;20237;-67
2022/07/25 09:20:53;;;;;;;7.65;7.05;;;;;;;;;;5089341;28;20289;-67
2022/07/25 09:23:28;;;;;;;8.32;7.63;;;;;;;;;;5093307;27;20200;-67
2022/07/25 09:26:07;;;;;;;7.38;6.68;;;;;;;;;;5098180;28;20200;-67
2022/07/25 09:28:43;;;;;;;6.80;6.20;;;;;;;;;;5087686;27;20718;-67
2022/07/25 09:31:12;;;;;;;6.22;5.63;;;;;;;;;;5093860;27;20261;-67
2022/07/25 09:33:48;;;;;;;7.78;4.97;;;;;;;;;;5093784;28;20208;-68
2022/07/25 09:36:15;;;;;;;4.18;3.88;;;;;;;;;;5093979;28;20251;-66
2022/07/25 09:38:56;;;;;;;4.95;4.53;;;;;;;;;;5096155;27;20269;-68
2022/07/25 09:41:33;;;;;;;5.25;4.60;;;;;;;;;;5109182;27;20233;-67
2022/07/25 09:44:03;;;;;;;4.70;4.25;;;;;;;;;;5098875;27;20235;-66
2022/07/25 09:46:31;;;;;;;5.07;4.55;;;;;;;;;;5093816;27;20314;-67
2022/07/25 09:48:59;;;;;;;5.50;4.60;;;;;;;;;;5106682;28;20212;-67
2022/07/25 09:51:27;;;;;;;5.97;4.68;;;;;;;;;;5093369;28;20223;-67
2022/07/25 09:53:55;;;;;;;6.07;4.88;;;;;;;;;;5093695;28;20208;-67
2022/07/25 09:56:22;;;;;;;4.90;4.50;;;;;;;;;;5088666;28;20282;-67
2022/07/25 09:58:51;;;;;;;5.60;4.85;;;;;;;;;;5093764;28;20203;-68
2022/07/25 10:01:21;;;;;;;5.70;5.25;;;;;;;;;;5089524;28;20204;-68
2022/07/25 10:03:58;;;;;;;4.88;4.57;;;;;;;;;;5092668;28;20228;-66
2022/07/25 10:06:25;;;;;;;5.50;5.00;;;;;;;;;;5095312;27;20242;-67
2022/07/25 10:08:53;;;;;;;5.35;4.85;;;;;;;;;;5103567;27;20195;-65
2022/07/25 10:11:25;;;;;;;5.40;5.00;;;;;;;;;;5110976;27;20226;-67
2022/07/25 10:13:53;;;;;;;5.38;4.97;;;;;;;;;;5093384;28;20440;-67
2022/07/25 10:16:25;;;;;;;6.00;5.50;;;;;;;;;;5072822;28;20710;-67
2022/07/25 10:18:53;;;;;;;6.68;5.88;;;;;;;;;;5073921;27;20304;-67
2022/07/25 10:21:21;;;;;;;6.78;6.00;;;;;;;;;;5087957;27;20212;-67
2022/07/25 10:23:57;;;;;;;6.47;5.88;;;;;;;;;;5105349;27;20219;-66
2022/07/25 10:26:25;;;;;;;5.95;5.45;;;;;;;;;;5096636;28;20729;-65
2022/07/25 10:28:54;;;;;;;6.30;5.80;;;;;;;;;;5114733;27;20199;-67
2022/07/25 10:31:22;;;;;;;8.45;5.80;;;;;;;;;;5085307;28;20612;-67
2022/07/25 10:33:54;;;;;;;6.15;5.65;;;;;;;;;;5081475;28;20208;-66
2022/07/25 10:36:21;;;;;;;6.18;5.57;;;;;;;;;;5072384;28;20229;-67
2022/07/25 10:38:50;;;;;;;6.57;5.18;;;;;;;;;;5097659;27;20200;-67
2022/07/25 10:41:24;;;;;;;5.55;5.15;;;;;;;;;;5128814;27;20204;-66
2022/07/25 10:43:55;;;;;;;6.05;5.40;;;;;;;;;;5103937;28;20218;-67
2022/07/25 10:46:25;;;;;;;6.28;5.70;;;;;;;;;;5110436;28;20231;-67
2022/07/25 10:48:57;;;;;;;6.53;6.03;;;;;;;;;;5091463;28;20204;-67
2022/07/25 10:51:29;;;;;;;6.60;6.00;;;;;;;;;;5092993;28;20572;-67
2022/07/25 10:53:57;;;;;;;6.70;5.97;;;;;;;;;;5093471;28;20196;-67
2022/07/25 10:56:26;;;;;;;7.05;6.43;;;;;;;;;;5093300;28;20280;-68
2022/07/25 10:58:54;;;;;;;7.90;7.15;;;;;;;;;;5093555;28;20204;-67
2022/07/25 11:01:22;;;;;;;7.93;7.20;;;;;;;;;;5098758;27;20206;-67
2022/07/25 11:03:50;;;;;;;7.97;7.38;;;;;;;;;;5094066;28;20218;-67
2022/07/25 11:06:29;;;;;;;8.07;7.38;;;;;;;;;;5107393;28;20225;-69
2022/07/25 11:08:59;;;;;;;8.20;7.50;;;;;;;;;;5094373;28;20204;-67
2022/07/25 11:11:36;;;;;;;7.25;6.65;;;;;;;;;;5096591;28;20211;-67
2022/07/25 11:14:05;;;;;;;7.35;6.72;;;;;;;;;;5084778;28;20204;-66
2022/07/25 11:16:32;;;;;;;7.60;7.00;;;;;;;;;;5072144;28;20221;-68
2022/07/25 11:19:00;;;;;;;8.02;7.28;;;;;;;;;;5082073;28;20629;-67
2022/07/25 11:21:27;;;;;;;8.05;7.38;;;;;;;;;;5096197;28;20210;-67
2022/07/25 11:23:55;;;;;;;7.88;7.28;;;;;;;;;;5104119;28;20222;-67
2022/07/25 11:26:22;;;;;;;7.90;7.30;;;;;;;;;;5092674;28;20222;-65
2022/07/25 11:28:50;;;;;;;8.35;7.55;;;;;;;;;;5093224;28;20199;-68
2022/07/25 11:31:19;;;;;;;7.20;6.60;;;;;;;;;;5072332;28;20205;-67
2022/07/25 11:33:47;;;;;;;5.95;5.55;;;;;;;;;;5073095;28;20204;-67
2022/07/25 11:36:15;;;;;;;5.35;4.95;;;;;;;;;;5074500;28;20246;-66
2022/07/25 11:38:47;;;;;;;5.68;5.00;;;;;;;;;;5095388;28;20211;-66
2022/07/25 11:41:14;;;;;;;6.47;4.95;;;;;;;;;;5109948;28;20290;-68
2022/07/25 11:43:47;;;;;;;5.35;4.85;;;;;;;;;;5112633;28;20199;-67
2022/07/25 11:46:16;;;;;;;5.13;4.72;;;;;;;;;;5101970;28;20255;-67
2022/07/25 11:49:06;;;;;;;5.97;5.47;;;;;;;;;;5039208;28;20214;-67
2022/07/25 11:51:55;;;;;;;5.88;5.38;;;;;;;;;;4962311;28;20349;-67
2022/07/25 11:55:01;;;;;;;5.70;5.30;;;;;;;;;;4904100;29;20215;-67
2022/07/25 11:57:44;;;;;;;5.30;4.80;;;;;;;;;;4872803;29;20827;-68
2022/07/25 12:00:25;;;;;;;5.53;5.07;;;;;;;;;;4835852;29;20266;-66
2022/07/25 12:03:07;;;;;;;5.03;4.70;;;;;;;;;;4970771;28;20217;-67
2022/07/25 12:05:55;;;;;;;5.22;4.82;;;;;;;;;;5030368;28;20658;-67
2022/07/25 12:08:43;;;;;;;5.32;4.82;;;;;;;;;;4943578;29;20219;-67
2022/07/25 12:11:32;;;;;;;4.50;4.20;;;;;;;;;;4938542;28;20204;-67
2022/07/25 12:14:13;;;;;;;4.30;3.90;;;;;;;;;;4935474;28;20703;-67
2022/07/25 12:16:54;;;;;;;4.95;4.32;;;;;;;;;;4982910;28;20231;-66
2022/07/25 12:19:39;;;;;;;5.10;4.60;;;;;;;;;;4972592;28;20612;-67
2022/07/25 12:22:20;;;;;;;4.55;4.25;;;;;;;;;;5013196;28;20214;-66
2022/07/25 12:25:02;;;;;;;3.72;3.42;;;;;;;;;;4985764;28;20234;-66
2022/07/25 12:27:43;;;;;;;4.30;4.00;;;;;;;;;;4951809;29;20640;-68
2022/07/25 12:30:32;;;;;;;5.28;4.78;;;;;;;;;;4898556;29;20640;-66
2022/07/25 12:33:13;;;;;;;4.78;4.25;;;;;;;;;;4926693;28;20236;-65
2022/07/25 12:35:55;;;;;;;5.13;4.63;;;;;;;;;;4918073;29;20220;-67
2022/07/25 12:38:43;;;;;;;5.07;4.68;;;;;;;;;;4894226;29;20218;-67
2022/07/25 12:41:24;;;;;;;4.88;4.47;;;;;;;;;;4843816;29;20304;-67
2022/07/25 12:44:05;;;;;;;5.00;4.70;;;;;;;;;;5003055;28;20659;-66
2022/07/25 12:46:53;;;;;;;5.10;4.60;;;;;;;;;;4972880;28;20258;-67
2022/07/25 12:49:35;;;;;;;5.60;5.20;;;;;;;;;;4916697;28;20213;-66
2022/07/25 12:52:08;;;;;;;5.50;5.00;;;;;;;;;;4963121;28;20209;-67
2022/07/25 12:54:56;;;;;;;5.68;5.25;;;;;;;;;;4966655;28;20205;-66
2022/07/25 12:57:37;;;;;;;5.35;4.97;;;;;;;;;;4986437;28;20244;-66
2022/07/25 13:00:26;;;;;;;5.00;4.60;;;;;;;;;;4939421;28;20309;-66
2022/07/25 13:03:16;;;;;;;4.57;4.20;;;;;;;;;;4952689;28;20681;-67
2022/07/25 13:05:57;;;;;;;5.28;4.88;;;;;;;;;;4961495;28;20242;-66
2022/07/25 13:08:39;;;;;;;5.57;5.18;;;;;;;;;;4970969;28;20211;-66
2022/07/25 13:11:20;;;;;;;5.65;5.00;;;;;;;;;;4930769;29;20225;-66
2022/07/25 13:14:01;;;;;;;4.82;4.53;;;;;;;;;;4948928;28;20216;-67
2022/07/25 13:16:43;;;;;;;4.18;3.88;;;;;;;;;;4905800;29;20664;-67
2022/07/25 13:19:24;;;;;;;3.92;3.63;;;;;;;;;;4940410;28;20338;-67
2022/07/25 13:22:06;;;;;;;4.00;3.70;;;;;;;;;;4928064;28;20212;-67
2022/07/25 13:24:33;;;;;;;3.97;3.65;;;;;;;;;;5038221;28;20208;-66
2022/07/25 13:27:04;;;;;;;4.22;3.92;;;;;;;;;;5073619;28;20235;-66
2022/07/25 13:29:32;;;;;;;5.40;3.85;;;;;;;;;;5085661;28;20690;-66
2022/07/25 13:32:01;;;;;;;4.30;3.90;;;;;;;;;;5095269;28;20265;-67
2022/07/25 13:34:29;;;;;;;4.30;4.00;;;;;;;;;;5103299;27;20192;-66
2022/07/25 13:36:57;;;;;;;4.60;4.20;;;;;;;;;;5092427;28;20228;-67
2022/07/25 13:39:30;;;;;;;4.35;3.95;;;;;;;;;;5099448;27;20203;-66
2022/07/25 13:41:58;;;;;;;4.47;4.07;;;;;;;;;;5093788;28;20203;-66
2022/07/25 13:44:25;;;;;;;4.70;4.30;;;;;;;;;;5097341;27;20701;-66
2022/07/25 13:46:52;;;;;;;4.82;4.43;;;;;;;;;;5093228;28;20579;-66
2022/07/25 13:49:20;;;;;;;5.03;4.57;;;;;;;;;;5094033;28;20203;-66
2022/07/25 13:51:48;;;;;;;5.45;4.65;;;;;;;;;;5093642;28;20204;-67
2022/07/25 13:54:15;;;;;;;5.10;4.68;;;;;;;;;;5094083;28;20204;-66
2022/07/25 13:56:42;;;;;;;6.50;4.70;;;;;;;;;;5093272;28;20356;-65
2022/07/25 13:59:10;;;;;;;5.43;4.95;;;;;;;;;;5098269;28;20651;-68
2022/07/25 14:01:46;;;;;;;6.70;5.00;;;;;;;;;;5094448;28;20210;-67
2022/07/25 14:04:13;;;;;;;5.47;4.97;;;;;;;;;;5074101;28;20208;-68
2022/07/25 14:06:41;;;;;;;5.38;4.97;;;;;;;;;;5092079;28;20236;-67
2022/07/25 14:09:08;;;;;;;6.07;5.15;;;;;;;;;;5087993;28;20258;-66
2022/07/25 14:11:36;;;;;;;5.55;5.03;;;;;;;;;;5083124;27;20843;-66
2022/07/25 14:14:04;;;;;;;6.00;5.15;;;;;;;;;;5107615;27;20212;-66
2022/07/25 14:16:32;;;;;;;7.88;5.72;;;;;;;;;;5097053;27;20234;-66
2022/07/25 14:19:00;;;;;;;6.50;5.90;;;;;;;;;;5084942;28;20214;-66
2022/07/25 14:21:28;;;;;;;6.60;6.00;;;;;;;;;;5095603;27;20257;-67
2022/07/25 14:23:55;;;;;;;7.20;6.55;;;;;;;;;;5107855;27;20226;-66
2022/07/25 14:26:24;;;;;;;6.30;5.80;;;;;;;;;;5089802;28;20230;-65
2022/07/25 14:28:51;;;;;;;6.47;5.97;;;;;;;;;;5090529;27;20206;-66
2022/07/25 14:31:20;;;;;;;6.38;5.75;;;;;;;;;;5107376;27;20208;-66
2022/07/25 14:33:47;;;;;;;7.80;7.07;;;;;;;;;;5098589;27;20235;-66
2022/07/25 14:36:15;;;;;;;7.15;6.25;;;;;;;;;;5102591;27;20286;-66
2022/07/25 14:38:46;;;;;;;6.43;5.80;;;;;;;;;;5089577;27;20311;-66
2022/07/25 14:41:14;;;;;;;6.88;6.20;;;;;;;;;;5111227;27;20232;-66
2022/07/25 14:43:41;;;;;;;6.88;6.18;;;;;;;;;;5093764;28;20230;-66
2022/07/25 14:46:09;;;;;;;6.60;6.10;;;;;;;;;;5090095;28;20588;-65
2022/07/25 14:48:37;;;;;;;7.18;6.50;;;;;;;;;;5084305;27;20210;-66
2022/07/25 14:51:06;;;;;;;7.50;6.38;;;;;;;;;;5095736;27;20854;-66
2022/07/25 14:53:34;;;;;;;6.97;6.30;;;;;;;;;;5106527;27;20220;-66